Time;durP1;ratioP1;P1;durP2;ratioP2;P2;SDS_P1;SDS_P2;PMS_P1;PMS_P2;Temp;Humidity;BMP_temperature;BMP_pressure;BME280_temperature;BME280_humidity;BME280_pressure;Samples;Min_cycle;Max_cycle;Signal;HPM_P1;HPM_P2
2023/05/07 00:00:31;;;;;;;3.03;2.10;;;;;;;17.16;62.20;101532.59;5047671;28;20048;-64
2023/05/07 00:02:58;;;;;;;3.13;1.90;;;;;;;17.14;62.23;101532.03;5058971;28;20067;-62
2023/05/07 00:05:28;;;;;;;4.72;2.33;;;;;;;17.12;62.44;101533.34;5056323;28;20073;-63
2023/05/07 00:07:55;;;;;;;5.65;2.00;;;;;;;17.12;62.35;101527.91;5053127;28;20049;-63
2023/05/07 00:10:26;;;;;;;3.75;2.13;;;;;;;17.10;62.39;101532.75;5058234;28;20045;-63
2023/05/07 00:12:54;;;;;;;4.03;2.22;;;;;;;17.10;62.49;101530.06;5054063;28;20071;-63
2023/05/07 00:15:22;;;;;;;5.38;2.30;;;;;;;17.09;62.33;101526.50;5057980;28;20101;-64
2023/05/07 00:17:50;;;;;;;4.65;2.15;;;;;;;17.09;62.19;101523.78;5051641;28;20061;-64
2023/05/07 00:20:18;;;;;;;6.15;2.92;;;;;;;17.08;62.23;101518.63;5051933;28;20432;-63
2023/05/07 00:22:47;;;;;;;4.30;2.50;;;;;;;17.09;62.16;101515.66;5061744;28;20475;-63
2023/05/07 00:25:14;;;;;;;6.22;2.53;;;;;;;17.08;62.17;101513.19;5058463;28;20059;-63
2023/05/07 00:27:42;;;;;;;3.45;2.25;;;;;;;17.08;62.38;101510.47;5053684;28;20049;-63
2023/05/07 00:30:11;;;;;;;6.03;2.58;;;;;;;17.07;62.19;101509.63;5060860;28;20074;-63
2023/05/07 00:32:41;;;;;;;4.88;2.70;;;;;;;17.07;62.35;101508.81;5057070;28;20042;-64
2023/05/07 00:35:10;;;;;;;4.38;2.72;;;;;;;17.06;62.42;101510.72;5044362;28;20052;-63
2023/05/07 00:37:38;;;;;;;5.07;2.83;;;;;;;17.06;62.29;101510.72;5056746;28;20072;-63
2023/05/07 00:40:08;;;;;;;5.55;2.90;;;;;;;17.06;62.52;101512.59;5048301;28;20063;-63
2023/05/07 00:42:37;;;;;;;4.63;2.60;;;;;;;17.05;62.56;101508.25;5054105;28;20103;-63
2023/05/07 00:45:06;;;;;;;5.05;2.85;;;;;;;17.04;62.50;101504.72;5048591;28;20045;-63
2023/05/07 00:47:34;;;;;;;4.93;3.17;;;;;;;17.03;62.55;101497.63;5055854;28;20455;-62
2023/05/07 00:50:02;;;;;;;3.53;2.60;;;;;;;17.02;62.51;101497.88;5049894;28;20053;-62
2023/05/07 00:52:30;;;;;;;4.80;3.15;;;;;;;17.01;62.42;101491.63;5046765;28;20363;-63
2023/05/07 00:54:58;;;;;;;3.25;2.60;;;;;;;17.02;62.54;101503.31;5056072;28;20117;-63
2023/05/07 00:57:27;;;;;;;4.53;2.60;;;;;;;17.02;62.64;101506.03;5056666;28;20057;-64
2023/05/07 00:59:55;;;;;;;5.13;3.42;;;;;;;17.00;62.64;101505.44;5056027;28;20076;-62
2023/05/07 01:02:23;;;;;;;4.97;3.28;;;;;;;17.00;62.65;101508.16;5053941;28;20084;-61
2023/05/07 01:04:51;;;;;;;5.60;3.05;;;;;;;16.98;62.66;101507.59;5050976;28;20049;-62
2023/05/07 01:07:19;;;;;;;6.30;3.55;;;;;;;16.98;62.34;101504.88;5048906;28;20084;-62
2023/05/07 01:09:47;;;;;;;6.07;3.13;;;;;;;16.97;62.52;101504.06;5053360;28;20077;-62
2023/05/07 01:12:15;;;;;;;4.88;3.20;;;;;;;16.98;62.81;101502.16;5058749;28;20113;-64
2023/05/07 01:14:44;;;;;;;4.65;3.33;;;;;;;16.96;62.56;101504.31;5050984;28;20049;-64
2023/05/07 01:17:12;;;;;;;7.72;3.47;;;;;;;16.95;62.75;101497.22;5050829;28;20071;-62
2023/05/07 01:19:40;;;;;;;7.57;3.90;;;;;;;16.94;62.56;101496.41;5049346;28;20107;-63
2023/05/07 01:22:10;;;;;;;5.88;3.75;;;;;;;16.92;62.77;101490.41;5044995;28;20449;-63
2023/05/07 01:24:39;;;;;;;7.85;3.83;;;;;;;16.90;62.96;101487.94;5049729;28;20037;-63
2023/05/07 01:27:07;;;;;;;4.88;3.20;;;;;;;16.90;62.68;101484.41;5052828;28;20048;-62
2023/05/07 01:29:35;;;;;;;5.95;3.60;;;;;;;16.87;62.77;101483.00;5054731;28;20045;-62
2023/05/07 01:32:04;;;;;;;5.97;3.50;;;;;;;16.88;62.87;101481.09;5056792;28;20071;-62
2023/05/07 01:34:35;;;;;;;6.40;3.83;;;;;;;16.86;62.84;101469.66;5060848;28;20127;-63
2023/05/07 01:37:03;;;;;;;6.28;4.05;;;;;;;16.85;62.98;101477.00;5050950;28;20283;-62
2023/05/07 01:39:32;;;;;;;6.35;3.97;;;;;;;16.83;63.08;101479.13;5059559;28;20124;-62
2023/05/07 01:42:01;;;;;;;5.40;3.35;;;;;;;16.82;62.95;101480.22;5055466;28;20088;-63
2023/05/07 01:44:29;;;;;;;6.43;4.22;;;;;;;16.82;63.04;101479.38;5053732;28;20410;-62
2023/05/07 01:46:58;;;;;;;9.43;4.28;;;;;;;16.80;63.04;101476.91;5057139;28;20471;-62
2023/05/07 01:49:26;;;;;;;7.32;3.72;;;;;;;16.80;62.98;101476.09;5060991;28;20076;-62
2023/05/07 01:51:55;;;;;;;7.35;3.95;;;;;;;16.79;62.99;101474.44;5054805;28;20046;-61
2023/05/07 01:54:27;;;;;;;6.47;3.90;;;;;;;16.77;63.05;101471.97;5050866;28;20109;-63
2023/05/07 01:56:57;;;;;;;7.97;4.57;;;;;;;16.77;63.14;101471.97;5050636;28;20110;-62
2023/05/07 01:59:26;;;;;;;5.93;3.80;;;;;;;16.75;63.28;101460.56;5053413;28;20051;-63
2023/05/07 02:01:53;;;;;;;6.72;4.07;;;;;;;16.76;63.29;101461.38;5042951;28;20069;-63
2023/05/07 02:04:21;;;;;;;8.75;4.05;;;;;;;16.74;63.14;101461.63;5050160;28;20533;-63
2023/05/07 02:06:49;;;;;;;7.13;4.13;;;;;;;16.72;63.21;101461.03;5052231;28;20055;-62
2023/05/07 02:09:17;;;;;;;6.30;4.13;;;;;;;16.72;63.25;101455.63;5056093;28;20045;-62
2023/05/07 02:11:45;;;;;;;6.72;4.20;;;;;;;16.72;63.29;101458.34;5058125;28;20430;-63
2023/05/07 02:14:13;;;;;;;7.28;4.10;;;;;;;16.72;63.17;101469.19;5056686;28;20051;-62
2023/05/07 02:16:42;;;;;;;6.10;4.32;;;;;;;16.73;63.40;101470.00;5050973;28;20562;-63
2023/05/07 02:19:10;;;;;;;8.00;4.10;;;;;;;16.72;63.21;101474.63;5055321;28;20140;-63
2023/05/07 02:21:38;;;;;;;7.32;5.00;;;;;;;16.72;63.42;101473.78;5049444;28;20045;-64
2023/05/07 02:24:06;;;;;;;5.85;4.03;;;;;;;16.71;63.16;101474.88;5046542;28;20324;-62
2023/05/07 02:26:34;;;;;;;7.10;4.28;;;;;;;16.72;63.25;101481.94;5052078;28;20105;-63
2023/05/07 02:29:01;;;;;;;7.57;4.90;;;;;;;16.70;63.42;101484.91;5049264;28;20155;-62
2023/05/07 02:31:29;;;;;;;7.18;4.63;;;;;;;16.70;63.03;101482.19;5057944;28;20135;-62
2023/05/07 02:33:58;;;;;;;5.85;3.92;;;;;;;16.69;63.30;101482.44;5053985;28;20116;-62
2023/05/07 02:36:26;;;;;;;7.30;4.43;;;;;;;16.69;63.45;101485.16;5049563;28;20045;-64
2023/05/07 02:38:54;;;;;;;8.18;5.35;;;;;;;16.69;63.44;101475.13;5052782;28;20065;-63
2023/05/07 02:41:22;;;;;;;6.53;4.78;;;;;;;16.68;63.45;101475.34;5051403;28;20067;-62
2023/05/07 02:43:49;;;;;;;6.93;4.60;;;;;;;16.68;63.52;101475.34;5059442;28;20295;-63
2023/05/07 02:46:17;;;;;;;8.98;5.32;;;;;;;16.66;63.59;101474.78;5057660;28;20051;-64
2023/05/07 02:48:45;;;;;;;7.63;4.97;;;;;;;16.66;63.54;101478.31;5054268;28;20041;-63
2023/05/07 02:51:14;;;;;;;7.40;5.20;;;;;;;16.66;63.54;101481.03;5056110;28;20045;-63
2023/05/07 02:53:42;;;;;;;7.47;4.97;;;;;;;16.65;63.26;101482.09;5054038;28;20060;-63
2023/05/07 02:56:10;;;;;;;7.22;4.50;;;;;;;16.65;63.33;101478.56;5048891;28;20049;-62
2023/05/07 02:58:39;;;;;;;8.40;5.43;;;;;;;16.64;63.41;101479.59;5053108;28;20044;-62
2023/05/07 03:01:06;;;;;;;6.93;4.57;;;;;;;16.63;63.70;101478.78;5044670;28;20537;-62
2023/05/07 03:03:35;;;;;;;9.05;5.38;;;;;;;16.62;63.61;101479.84;5052641;28;20159;-63
2023/05/07 03:06:03;;;;;;;8.68;5.15;;;;;;;16.60;63.43;101473.84;5054804;28;20139;-62
2023/05/07 03:08:32;;;;;;;7.43;4.85;;;;;;;16.59;63.52;101474.91;5053016;28;20045;-62
2023/05/07 03:11:00;;;;;;;6.68;4.70;;;;;;;16.58;63.72;101468.66;5058310;28;20544;-63
2023/05/07 03:13:28;;;;;;;6.88;4.95;;;;;;;16.57;63.46;101477.88;5052954;28;20063;-62
2023/05/07 03:15:55;;;;;;;8.27;5.25;;;;;;;16.57;63.90;101469.72;5061646;28;20049;-63
2023/05/07 03:18:23;;;;;;;8.45;4.75;;;;;;;16.55;63.67;101469.16;5053001;28;20052;-62
2023/05/07 03:20:52;;;;;;;6.95;5.28;;;;;;;16.54;63.94;101467.50;5054956;28;20063;-62
2023/05/07 03:23:20;;;;;;;6.07;4.68;;;;;;;16.54;63.63;101466.69;5055500;28;20084;-63
2023/05/07 03:25:52;;;;;;;7.47;4.90;;;;;;;16.53;63.95;101462.34;5061668;28;20049;-63
2023/05/07 03:28:20;;;;;;;7.15;4.72;;;;;;;16.52;63.77;101466.13;5055342;28;20501;-64
2023/05/07 03:30:48;;;;;;;8.82;5.28;;;;;;;16.50;63.86;101458.22;5052736;28;20044;-62
2023/05/07 03:33:16;;;;;;;6.60;5.10;;;;;;;16.50;63.96;101460.09;5060353;28;20054;-62
2023/05/07 03:35:44;;;;;;;10.30;5.00;;;;;;;16.49;64.02;101455.75;5057661;28;20060;-63
2023/05/07 03:38:12;;;;;;;7.85;5.80;;;;;;;16.47;63.94;101453.28;5053773;28;20076;-62
2023/05/07 03:40:39;;;;;;;6.88;5.43;;;;;;;16.47;64.10;101453.28;5053419;28;20064;-62
2023/05/07 03:43:08;;;;;;;8.25;5.65;;;;;;;16.46;64.04;101454.34;5051572;28;20368;-62
2023/05/07 03:45:36;;;;;;;7.13;5.30;;;;;;;16.45;64.05;101449.16;5061325;28;20045;-62
2023/05/07 03:48:04;;;;;;;7.13;4.97;;;;;;;16.43;64.08;101452.13;5061436;28;20056;-64
2023/05/07 03:50:32;;;;;;;9.05;5.63;;;;;;;16.43;64.19;101452.13;5061782;28;20052;-63
2023/05/07 03:53:00;;;;;;;6.90;4.68;;;;;;;16.43;64.04;101457.56;5059892;28;20072;-63
2023/05/07 03:55:28;;;;;;;7.40;4.90;;;;;;;16.35;63.94;101441.69;5055452;28;20527;-63
2023/05/07 03:57:56;;;;;;;7.63;5.15;;;;;;;16.42;63.96;101455.09;5053295;28;20040;-63
2023/05/07 04:00:26;;;;;;;7.45;5.15;;;;;;;16.41;63.80;101456.97;5054540;28;20047;-63
2023/05/07 04:02:54;;;;;;;8.90;5.55;;;;;;;16.41;63.95;101464.28;5056512;28;20177;-64
2023/05/07 04:05:22;;;;;;;6.20;4.63;;;;;;;16.42;64.04;101465.94;5056366;28;20061;-61
2023/05/07 04:07:50;;;;;;;7.75;5.28;;;;;;;16.41;64.08;101475.97;5060384;28;20158;-62
2023/05/07 04:10:18;;;;;;;7.13;5.05;;;;;;;16.41;63.91;101480.56;5053164;28;20443;-62
2023/05/07 04:12:45;;;;;;;7.70;5.78;;;;;;;16.41;64.10;101477.88;5059665;28;20057;-63
2023/05/07 04:15:13;;;;;;;10.38;5.43;;;;;;;16.40;63.92;101485.19;5052296;28;20073;-62
2023/05/07 04:17:43;;;;;;;8.73;5.85;;;;;;;16.40;63.98;101485.19;5054265;28;20615;-63
2023/05/07 04:20:17;;;;;;;6.97;4.80;;;;;;;16.32;64.21;101472.00;5052172;28;20109;-62
2023/05/07 04:22:45;;;;;;;7.15;5.32;;;;;;;16.31;64.24;101473.06;5054361;28;20414;-63
2023/05/07 04:25:13;;;;;;;7.13;5.13;;;;;;;16.39;64.04;101494.38;5053626;28;20049;-57
2023/05/07 04:27:41;;;;;;;8.05;5.22;;;;;;;16.38;64.13;101490.03;4346234;28;10000773;-61
2023/05/07 04:30:10;;;;;;;9.95;5.50;;;;;;;16.38;64.25;101487.31;5052416;28;20561;-61
2023/05/07 04:32:38;;;;;;;7.88;5.50;;;;;;;16.31;64.06;101477.69;5052770;28;20350;-62
2023/05/07 04:35:08;;;;;;;8.57;5.50;;;;;;;16.37;64.19;101490.28;5053405;28;20462;-59
2023/05/07 04:37:36;;;;;;;7.00;5.47;;;;;;;16.37;64.04;101487.56;5048636;28;20141;-63
2023/05/07 04:40:04;;;;;;;9.30;5.30;;;;;;;16.37;64.21;101480.25;5049717;28;20560;-62
2023/05/07 04:42:32;;;;;;;8.82;5.20;;;;;;;16.36;64.19;101486.72;5055674;28;20053;-61
2023/05/07 04:45:00;;;;;;;8.05;5.00;;;;;;;16.35;64.22;101482.38;5055478;28;20135;-62
2023/05/07 04:47:29;;;;;;;7.63;5.40;;;;;;;16.35;64.19;101485.09;5050242;28;20045;-61
2023/05/07 04:49:58;;;;;;;11.38;4.90;;;;;;;16.35;64.18;101489.69;5048064;28;20533;-62
2023/05/07 04:52:27;;;;;;;9.10;5.43;;;;;;;16.24;64.19;101480.53;5049351;28;20139;-62
2023/05/07 04:54:55;;;;;;;7.82;5.20;;;;;;;16.33;64.46;101497.25;5051684;28;20337;-62
2023/05/07 04:57:23;;;;;;;7.38;5.10;;;;;;;16.32;64.47;101493.72;5055383;28;20080;-62
2023/05/07 04:59:51;;;;;;;6.75;4.88;;;;;;;16.30;64.36;101495.84;5042680;28;20072;-59
2023/05/07 05:02:20;;;;;;;7.60;5.70;;;;;;;16.31;64.36;101502.09;5050540;28;20048;-58
2023/05/07 05:04:47;;;;;;;9.05;5.88;;;;;;;16.30;64.49;101498.56;5049988;28;20099;-62
2023/05/07 05:07:15;;;;;;;7.50;5.68;;;;;;;16.28;64.51;101498.81;5056670;28;20056;-62
2023/05/07 05:09:44;;;;;;;8.32;5.57;;;;;;;16.28;64.80;101497.97;5058187;28;20124;-63
2023/05/07 05:12:12;;;;;;;10.35;5.80;;;;;;;16.26;64.73;101497.41;5051646;28;20057;-62
2023/05/07 05:14:40;;;;;;;10.38;5.47;;;;;;;16.19;64.79;101494.84;5051162;28;20080;-62
2023/05/07 05:17:08;;;;;;;9.15;5.65;;;;;;;16.26;64.78;101511.78;5058050;28;20081;-62
2023/05/07 05:19:36;;;;;;;8.57;5.93;;;;;;;16.25;64.93;101507.44;5052087;28;20053;-63
2023/05/07 05:22:04;;;;;;;8.57;5.60;;;;;;;16.25;64.68;101514.75;5051168;28;20057;-62
2023/05/07 05:24:32;;;;;;;9.15;5.57;;;;;;;16.23;64.57;101509.56;5051687;28;20077;-63
2023/05/07 05:27:02;;;;;;;6.78;5.13;;;;;;;16.24;64.80;101511.22;5045994;28;20053;-61
2023/05/07 05:29:31;;;;;;;7.07;4.93;;;;;;;16.17;64.69;101493.44;5053934;28;20486;-62
2023/05/07 05:31:59;;;;;;;8.13;4.88;;;;;;;16.16;64.70;101499.94;5050882;28;20088;-62
2023/05/07 05:34:27;;;;;;;9.35;6.00;;;;;;;16.23;64.52;101511.44;5043377;28;20182;-62
2023/05/07 05:36:55;;;;;;;7.72;4.72;;;;;;;16.23;64.61;101517.69;5044054;28;20076;-62
2023/05/07 05:39:23;;;;;;;8.30;5.38;;;;;;;16.23;64.95;101516.88;5049910;28;20611;-63
2023/05/07 05:41:51;;;;;;;7.47;5.53;;;;;;;16.23;64.81;101516.88;5055078;28;20056;-64
2023/05/07 05:44:20;;;;;;;9.30;5.65;;;;;;;16.23;64.82;101530.44;5049135;28;20077;-65
2023/05/07 05:46:49;;;;;;;9.15;5.18;;;;;;;16.22;64.69;101524.19;5041998;28;20041;-66
2023/05/07 05:49:17;;;;;;;7.07;5.28;;;;;;;16.22;64.89;101526.91;5054309;28;20136;-66
2023/05/07 05:51:45;;;;;;;7.38;5.10;;;;;;;16.22;64.92;101528.78;5052585;28;20549;-66
2023/05/07 05:54:13;;;;;;;8.35;5.72;;;;;;;16.21;65.15;101533.38;5055480;28;20045;-67
2023/05/07 05:56:42;;;;;;;7.47;5.25;;;;;;;16.22;64.95;101532.31;5041956;28;20053;-63
2023/05/07 05:59:10;;;;;;;8.20;5.45;;;;;;;16.17;64.86;101524.09;5056610;28;20052;-62
2023/05/07 06:01:39;;;;;;;7.00;5.05;;;;;;;16.23;65.01;101522.28;5054472;28;20127;-62
2023/05/07 06:04:07;;;;;;;6.93;5.20;;;;;;;16.16;65.04;101516.19;5051091;28;20417;-62
2023/05/07 06:06:35;;;;;;;6.03;4.63;;;;;;;16.22;64.98;101523.38;5049918;28;20045;-59
2023/05/07 06:09:03;;;;;;;6.05;4.72;;;;;;;16.21;65.09;101522.53;5049884;28;20108;-60
2023/05/07 06:11:32;;;;;;;7.75;4.85;;;;;;;16.23;65.06;101522.28;5049288;28;20087;-60
2023/05/07 06:14:00;;;;;;;10.63;5.18;;;;;;;16.15;65.11;101515.38;5045997;28;20075;-60
2023/05/07 06:16:28;;;;;;;10.30;6.93;;;;;;;16.22;67.25;101529.63;5046885;28;20063;-60
2023/05/07 06:18:57;;;;;;;9.43;6.03;;;;;;;16.21;66.70;101530.69;5045685;28;20710;-60
2023/05/07 06:21:25;;;;;;;7.45;5.75;;;;;;;16.21;66.27;101533.38;5050236;28;20163;-60
2023/05/07 06:23:54;;;;;;;13.73;6.10;;;;;;;16.22;66.08;101526.91;5048458;28;20067;-60
2023/05/07 06:26:22;;;;;;;9.48;5.32;;;;;;;16.23;65.95;101538.56;5050371;28;20045;-60
2023/05/07 06:28:50;;;;;;;7.47;5.72;;;;;;;16.23;65.81;101533.16;5058254;28;20045;-60
2023/05/07 06:31:21;;;;;;;11.07;5.63;;;;;;;16.22;65.63;101529.63;5041504;28;20069;-61
2023/05/07 06:33:49;;;;;;;8.85;5.70;;;;;;;16.23;65.77;101533.16;5060701;28;20102;-60
2023/05/07 06:36:19;;;;;;;9.75;7.05;;;;;;;16.23;66.09;101528.53;5052102;28;20056;-60
2023/05/07 06:38:47;;;;;;;10.50;6.68;;;;;;;16.23;67.38;101530.44;5058578;28;20051;-60
2023/05/07 06:41:14;;;;;;;9.38;6.63;;;;;;;16.23;66.72;101533.97;5050889;28;20076;-60
2023/05/07 06:43:42;;;;;;;7.65;5.88;;;;;;;16.22;66.46;101535.03;5048011;28;20104;-59
2023/05/07 06:46:10;;;;;;;9.20;5.57;;;;;;;16.23;66.26;101538.56;5056390;28;20072;-59
2023/05/07 06:48:38;;;;;;;9.30;6.13;;;;;;;16.24;66.47;101540.22;5046783;28;20094;-62
2023/05/07 06:51:06;;;;;;;11.10;6.68;;;;;;;16.24;66.46;101542.94;5040238;28;20061;-61
2023/05/07 06:53:36;;;;;;;13.88;5.72;;;;;;;16.24;66.76;101540.22;5049993;28;20295;-61
2023/05/07 06:56:04;;;;;;;11.05;5.82;;;;;;;16.24;66.48;101551.06;5050418;28;20613;-62
2023/05/07 06:58:32;;;;;;;13.55;6.63;;;;;;;16.24;66.41;101551.88;5042265;28;20064;-62
2023/05/07 07:01:00;;;;;;;8.15;5.30;;;;;;;16.23;66.27;101558.38;5045806;28;20056;-60
2023/05/07 07:03:28;;;;;;;7.90;5.32;;;;;;;16.24;66.39;101553.78;5060319;28;20041;-57
2023/05/07 07:05:56;;;;;;;6.85;4.88;;;;;;;16.24;66.25;101553.78;5042747;28;20049;-60
2023/05/07 07:08:24;;;;;;;9.45;5.13;;;;;;;16.24;65.93;101556.50;5051955;28;20069;-60
2023/05/07 07:10:53;;;;;;;7.57;4.68;;;;;;;16.24;66.08;101561.91;5053657;28;20108;-61
2023/05/07 07:13:21;;;;;;;7.07;4.88;;;;;;;16.24;66.33;101557.31;5055147;28;20125;-60
2023/05/07 07:15:49;;;;;;;10.10;4.65;;;;;;;16.25;66.29;101560.84;5056937;28;20079;-61
2023/05/07 07:18:17;;;;;;;10.88;5.50;;;;;;;16.25;66.28;101555.44;5058096;28;20564;-61
2023/05/07 07:20:45;;;;;;;6.40;4.63;;;;;;;16.24;66.07;101551.88;5052538;28;20109;-60
2023/05/07 07:23:13;;;;;;;6.30;4.10;;;;;;;16.24;65.69;101553.78;5053588;28;20125;-61
2023/05/07 07:25:41;;;;;;;6.35;4.68;;;;;;;16.24;65.37;101551.88;5053763;28;20053;-62
2023/05/07 07:28:10;;;;;;;10.63;4.32;;;;;;;16.25;65.88;101552.72;5055387;28;20695;-62
2023/05/07 07:30:38;;;;;;;6.60;4.72;;;;;;;16.25;65.70;101558.97;5057282;28;20132;-61
2023/05/07 07:33:06;;;;;;;7.50;4.32;;;;;;;16.26;65.96;101557.06;5047584;28;20053;-61
2023/05/07 07:35:34;;;;;;;6.55;4.53;;;;;;;16.26;65.51;101563.31;5056900;28;20049;-61
2023/05/07 07:38:02;;;;;;;9.20;5.63;;;;;;;16.28;66.23;101568.50;5045052;28;20052;-60
2023/05/07 07:40:30;;;;;;;7.05;5.03;;;;;;;16.28;65.89;101571.22;5049643;28;20398;-61
2023/05/07 07:42:58;;;;;;;5.72;4.10;;;;;;;16.29;65.78;101570.16;5052181;28;20129;-61
2023/05/07 07:45:27;;;;;;;6.63;4.68;;;;;;;16.29;65.75;101567.44;5059605;28;20053;-60
2023/05/07 07:47:55;;;;;;;7.05;3.75;;;;;;;16.30;65.79;101569.09;5039394;28;20138;-61
2023/05/07 07:50:23;;;;;;;6.53;4.50;;;;;;;16.31;65.95;101568.03;5045335;28;20049;-61
2023/05/07 07:53:09;;;;;;;9.85;5.68;;;;;;;16.31;67.70;101567.19;5056830;28;20056;-62
2023/05/07 07:55:39;;;;;;;6.88;4.78;;;;;;;16.31;67.13;101557.16;5060478;28;20226;-60
2023/05/07 07:58:07;;;;;;;9.55;5.10;;;;;;;16.32;67.11;101563.41;5059423;28;20386;-63
2023/05/07 08:00:37;;;;;;;10.18;5.43;;;;;;;16.33;66.78;101565.06;5058588;28;20114;-63
2023/05/07 08:03:06;;;;;;;9.75;5.38;;;;;;;16.34;66.81;101572.13;5063113;28;20041;-62
2023/05/07 08:05:35;;;;;;;7.65;4.90;;;;;;;16.35;66.74;101566.47;5057581;28;20059;-63
2023/05/07 08:08:03;;;;;;;7.95;5.30;;;;;;;16.36;67.21;101559.97;5061410;28;20105;-64
2023/05/07 08:10:34;;;;;;;8.45;5.45;;;;;;;16.37;67.11;101558.91;5051730;28;20051;-62
2023/05/07 08:13:03;;;;;;;8.02;5.55;;;;;;;16.38;67.08;101559.75;5052727;28;20176;-61
2023/05/07 08:15:31;;;;;;;11.68;5.75;;;;;;;16.38;67.39;101555.13;5061603;28;20052;-61
2023/05/07 08:18:01;;;;;;;9.77;5.15;;;;;;;16.39;67.93;101558.66;5060480;28;20099;-60
2023/05/07 08:20:30;;;;;;;9.48;4.07;;;;;;;16.39;67.42;101562.22;5060950;28;20037;-60
2023/05/07 08:22:57;;;;;;;7.57;5.18;;;;;;;16.37;67.57;101561.63;5059911;28;20056;-61
2023/05/07 08:25:25;;;;;;;8.43;6.35;;;;;;;16.42;68.09;101574.47;5050672;28;20057;-62
2023/05/07 08:27:53;;;;;;;7.35;5.45;;;;;;;16.42;68.16;101579.88;5053983;28;20074;-62
2023/05/07 08:30:22;;;;;;;8.23;6.88;;;;;;;16.44;68.42;101583.19;5062482;28;20049;-62
2023/05/07 08:32:50;;;;;;;6.72;5.30;;;;;;;16.43;68.17;101582.38;5047931;28;20719;-58
2023/05/07 08:35:19;;;;;;;8.57;4.78;;;;;;;16.45;67.70;101584.84;5055781;28;20470;-61
2023/05/07 08:37:47;;;;;;;9.20;4.93;;;;;;;16.47;67.23;101582.69;5045726;28;20442;-60
2023/05/07 08:40:15;;;;;;;6.22;4.20;;;;;;;16.47;67.15;101588.94;5057478;28;20080;-57
2023/05/07 08:42:45;;;;;;;8.20;4.75;;;;;;;16.48;67.06;101596.03;5058837;28;20049;-61
2023/05/07 08:45:14;;;;;;;6.30;4.97;;;;;;;16.49;66.84;101583.28;5050524;28;20085;-60
2023/05/07 08:47:45;;;;;;;5.88;3.90;;;;;;;16.43;66.93;101579.66;5054699;28;20049;-56
2023/05/07 08:50:14;;;;;;;6.03;4.05;;;;;;;16.51;66.77;101592.00;5049330;28;20049;-61
2023/05/07 08:52:43;;;;;;;7.43;4.65;;;;;;;16.52;67.00;101586.31;5057483;28;20509;-63
2023/05/07 08:55:11;;;;;;;7.15;5.05;;;;;;;16.53;66.93;101587.97;5057390;28;20048;-60
2023/05/07 08:57:40;;;;;;;5.88;4.53;;;;;;;16.54;66.99;101584.19;4708467;28;10000461;-61
2023/05/07 09:00:09;;;;;;;8.27;5.63;;;;;;;16.55;67.23;101587.72;5057572;28;20209;-62
2023/05/07 09:02:37;;;;;;;6.57;4.68;;;;;;;16.55;67.55;101593.16;5059299;28;20049;-61
2023/05/07 09:05:06;;;;;;;8.65;5.25;;;;;;;16.58;67.65;101595.38;5057240;28;20053;-57
2023/05/07 09:07:35;;;;;;;10.48;5.47;;;;;;;16.58;67.61;101587.25;5059021;28;20053;-61
2023/05/07 09:10:05;;;;;;;5.68;4.25;;;;;;;16.60;67.73;101598.69;5052945;28;20045;-58
2023/05/07 09:12:35;;;;;;;7.22;4.63;;;;;;;16.61;67.63;101594.91;5056431;28;20514;-59
2023/05/07 09:15:03;;;;;;;7.68;5.28;;;;;;;16.62;67.61;101591.13;5055499;28;20472;-59
2023/05/07 09:17:30;;;;;;;7.68;4.57;;;;;;;16.57;67.26;101581.00;5059057;28;20052;-58
2023/05/07 09:20:04;;;;;;;7.57;4.90;;;;;;;16.65;67.41;101589.84;5057842;28;20065;-60
2023/05/07 09:22:33;;;;;;;6.03;4.20;;;;;;;16.66;67.41;101586.88;5059034;28;20068;-61
2023/05/07 09:25:01;;;;;;;5.97;3.55;;;;;;;16.68;67.01;101592.06;5055986;28;20045;-56
2023/05/07 09:27:31;;;;;;;6.15;4.15;;;;;;;16.69;66.93;101591.81;5057235;28;20071;-60
2023/05/07 09:29:59;;;;;;;7.35;4.05;;;;;;;16.72;67.05;101593.22;5058010;28;20128;-61
2023/05/07 09:32:27;;;;;;;6.70;3.97;;;;;;;16.74;67.33;101596.53;5056410;28;20111;-60
2023/05/07 09:34:55;;;;;;;8.57;4.93;;;;;;;16.76;67.37;101599.81;5043494;28;20140;-61
2023/05/07 09:37:23;;;;;;;5.60;4.40;;;;;;;16.78;67.35;101589.53;5053018;28;20072;-60
2023/05/07 09:39:51;;;;;;;6.20;4.10;;;;;;;16.80;67.16;101592.81;5053745;28;20076;-59
2023/05/07 09:42:24;;;;;;;5.40;3.88;;;;;;;16.81;66.87;101595.31;5057110;28;20052;-60
2023/05/07 09:44:53;;;;;;;8.77;3.63;;;;;;;16.83;66.82;101595.06;5052182;28;20112;-60
2023/05/07 09:47:25;;;;;;;4.80;3.15;;;;;;;16.83;66.52;101587.72;5058247;28;20135;-62
2023/05/07 09:49:58;;;;;;;5.38;3.83;;;;;;;16.88;66.76;101593.25;5052021;28;20083;-59
2023/05/07 09:52:33;;;;;;;18.48;8.57;;;;;;;17.17;69.97;101591.28;5044089;28;20427;-56
2023/05/07 09:55:03;;;;;;;12.20;7.00;;;;;;;17.11;69.08;101594.16;5046868;28;20045;-61
2023/05/07 09:57:33;;;;;;;11.57;7.28;;;;;;;17.07;68.85;101593.84;5055244;28;20089;-62
2023/05/07 10:00:04;;;;;;;12.38;7.07;;;;;;;17.06;69.05;101596.81;5051915;28;20068;-60
2023/05/07 10:02:36;;;;;;;8.65;6.18;;;;;;;17.06;68.90;101597.63;4853845;28;10000433;-61
2023/05/07 10:05:05;;;;;;;10.75;6.88;;;;;;;17.06;68.87;101597.63;5048889;28;20278;-58
2023/05/07 10:07:33;;;;;;;10.95;6.82;;;;;;;17.06;68.67;101594.91;5055767;28;20044;-56
2023/05/07 10:10:02;;;;;;;8.43;6.80;;;;;;;17.08;68.72;101600.09;5054179;28;20060;-56
2023/05/07 10:12:37;;;;;;;12.68;6.65;;;;;;;17.09;68.88;101599.84;5049475;28;20049;-60
2023/05/07 10:15:08;;;;;;;9.00;6.15;;;;;;;17.11;68.83;101592.28;5051361;28;20052;-66
2023/05/07 10:17:38;;;;;;;8.95;6.53;;;;;;;17.04;69.05;101574.50;5054812;28;20087;-63
2023/05/07 10:20:07;;;;;;;9.82;6.22;;;;;;;17.14;69.01;101589.06;5047562;28;20582;-64
2023/05/07 10:22:50;;;;;;;12.15;6.70;;;;;;;17.17;69.27;101599.44;5050886;28;20062;-64
2023/05/07 10:25:30;;;;;;;8.07;6.00;;;;;;;17.19;69.37;101591.03;5047134;28;20056;-63
2023/05/07 10:28:01;;;;;;;9.10;5.93;;;;;;;17.20;68.62;101582.63;5059846;28;20479;-62
2023/05/07 10:30:42;;;;;;;10.45;6.85;;;;;;;17.22;69.43;101588.66;5055978;28;20055;-62
2023/05/07 10:33:13;;;;;;;12.10;7.80;;;;;;;17.23;69.60;101586.75;5045954;28;20053;-57
2023/05/07 10:35:43;;;;;;;13.63;7.85;;;;;;;17.25;69.15;101590.03;5045944;28;20080;-64
2023/05/07 10:38:11;;;;;;;8.93;6.55;;;;;;;17.19;69.10;101582.88;5058369;28;20111;-63
2023/05/07 10:40:40;;;;;;;9.95;6.60;;;;;;;17.29;69.17;101593.91;5056172;28;20079;-62
2023/05/07 10:43:08;;;;;;;16.10;7.03;;;;;;;17.32;69.60;101598.03;5059958;28;20049;-62
2023/05/07 10:45:39;;;;;;;11.68;6.40;;;;;;;17.34;69.62;101598.56;5043936;28;20053;-62
2023/05/07 10:48:08;;;;;;;14.90;7.05;;;;;;;17.36;69.16;101599.97;5058217;28;20516;-62
2023/05/07 10:51:20;;;;;;;8.85;6.43;;;;;;;17.38;69.64;101599.72;5048041;28;20036;-63
2023/05/07 10:53:48;;;;;;;7.97;5.88;;;;;;;17.40;69.39;101601.13;5053967;28;20332;-63
2023/05/07 10:56:27;;;;;;;10.23;5.20;;;;;;;17.35;69.22;101592.88;5049117;28;20045;-68
2023/05/07 10:58:55;;;;;;;9.55;6.38;;;;;;;17.46;68.63;101610.16;5041789;28;20048;-68
2023/05/07 11:01:53;;;;;;;8.95;5.45;;;;;;;17.48;68.74;101610.75;5048087;28;20048;-64
2023/05/07 11:04:26;;;;;;;7.35;5.45;;;;;;;17.50;68.56;101605.88;5059095;28;20049;-66
2023/05/07 11:07:31;;;;;;;10.60;5.80;;;;;;;17.53;68.29;101605.38;5048631;28;20041;-64
2023/05/07 11:10:04;;;;;;;7.57;5.53;;;;;;;17.41;68.24;101582.91;5045801;28;20484;-66
2023/05/07 11:12:55;;;;;;;10.60;5.57;;;;;;;17.56;68.06;101600.28;5052783;28;20075;-63
2023/05/07 11:15:46;;;;;;;10.55;5.03;;;;;;;17.52;67.63;101595.59;5047444;28;20053;-64
2023/05/07 11:18:17;;;;;;;10.52;6.35;;;;;;;17.62;67.84;101600.34;5053403;28;20049;-61
2023/05/07 11:20:50;;;;;;;9.60;6.20;;;;;;;17.63;67.82;101599.28;5046742;28;20490;-62
2023/05/07 11:24:00;;;;;;;9.57;5.10;;;;;;;17.65;67.87;101599.84;5053143;28;20047;-62
2023/05/07 11:26:30;;;;;;;7.68;4.60;;;;;;;17.68;67.84;101592.03;5049523;28;20048;-62
2023/05/07 11:29:00;;;;;;;7.88;5.15;;;;;;;17.72;67.73;101595.91;5050621;28;20049;-63
2023/05/07 11:31:29;;;;;;;8.82;4.55;;;;;;;17.73;67.55;101592.13;5052624;28;20067;-63
2023/05/07 11:33:59;;;;;;;9.07;4.85;;;;;;;17.77;67.68;101593.25;5057070;28;20442;-62